sensor_id;sensor_type;location;lat;lon;timestamp;P1;durP1;ratioP1;P2;durP2;ratioP2
56629;SDS011;42502;40.732;-74.254;2023-05-10T00:01:14;4.00;;;0.60;;
56629;SDS011;42502;40.732;-74.254;2023-05-10T00:03:15;3.15;;;0.65;;
56629;SDS011;42502;40.732;-74.254;2023-05-10T00:05:19;1.55;;;0.50;;
56629;SDS011;42502;40.732;-74.254;2023-05-10T00:07:20;2.65;;;0.70;;
56629;SDS011;42502;40.732;-74.254;2023-05-10T00:09:21;1.75;;;0.50;;
56629;SDS011;42502;40.732;-74.254;2023-05-10T00:11:21;1.75;;;0.80;;
56629;SDS011;42502;40.732;-74.254;2023-05-10T00:13:22;1.70;;;0.50;;
56629;SDS011;42502;40.732;-74.254;2023-05-10T00:15:23;2.90;;;0.65;;
56629;SDS011;42502;40.732;-74.254;2023-05-10T00:17:24;3.47;;;0.57;;
56629;SDS011;42502;40.732;-74.254;2023-05-10T00:19:25;4.60;;;0.60;;
56629;SDS011;42502;40.732;-74.254;2023-05-10T00:21:26;2.90;;;0.60;;
56629;SDS011;42502;40.732;-74.254;2023-05-10T00:23:32;4.13;;;0.75;;
56629;SDS011;42502;40.732;-74.254;2023-05-10T00:25:33;2.40;;;0.70;;
56629;SDS011;42502;40.732;-74.254;2023-05-10T00:27:34;1.70;;;0.55;;
56629;SDS011;42502;40.732;-74.254;2023-05-10T00:29:35;2.20;;;0.60;;
56629;SDS011;42502;40.732;-74.254;2023-05-10T00:31:36;5.47;;;0.95;;
56629;SDS011;42502;40.732;-74.254;2023-05-10T00:33:36;2.75;;;0.70;;
56629;SDS011;42502;40.732;-74.254;2023-05-10T00:35:37;6.18;;;0.60;;
56629;SDS011;42502;40.732;-74.254;2023-05-10T00:37:38;1.92;;;0.63;;
56629;SDS011;42502;40.732;-74.254;2023-05-10T00:39:39;9.98;;;0.73;;
56629;SDS011;42502;40.732;-74.254;2023-05-10T00:41:39;7.97;;;0.77;;
56629;SDS011;42502;40.732;-74.254;2023-05-10T00:43:40;6.82;;;0.70;;
56629;SDS011;42502;40.732;-74.254;2023-05-10T00:45:41;3.33;;;0.70;;
56629;SDS011;42502;40.732;-74.254;2023-05-10T00:47:45;5.72;;;0.77;;
56629;SDS011;42502;40.732;-74.254;2023-05-10T00:49:46;3.97;;;0.80;;
56629;SDS011;42502;40.732;-74.254;2023-05-10T00:51:47;4.38;;;1.80;;
56629;SDS011;42502;40.732;-74.254;2023-05-10T00:53:48;4.88;;;2.70;;
56629;SDS011;42502;40.732;-74.254;2023-05-10T00:55:51;7.13;;;3.90;;
56629;SDS011;42502;40.732;-74.254;2023-05-10T00:57:52;11.57;;;5.70;;
56629;SDS011;42502;40.732;-74.254;2023-05-10T00:59:56;10.27;;;5.68;;
56629;SDS011;42502;40.732;-74.254;2023-05-10T01:01:58;10.75;;;7.05;;
56629;SDS011;42502;40.732;-74.254;2023-05-10T01:03:58;9.60;;;6.35;;
56629;SDS011;42502;40.732;-74.254;2023-05-10T01:06:00;11.63;;;7.45;;
56629;SDS011;42502;40.732;-74.254;2023-05-10T01:08:01;13.73;;;7.32;;
56629;SDS011;42502;40.732;-74.254;2023-05-10T01:10:08;11.23;;;7.57;;
56629;SDS011;42502;40.732;-74.254;2023-05-10T01:12:10;13.32;;;8.63;;
56629;SDS011;42502;40.732;-74.254;2023-05-10T01:14:15;15.90;;;9.00;;
56629;SDS011;42502;40.732;-74.254;2023-05-10T01:16:18;9.77;;;6.93;;
56629;SDS011;42502;40.732;-74.254;2023-05-10T01:18:19;12.38;;;8.55;;
56629;SDS011;42502;40.732;-74.254;2023-05-10T01:20:21;11.95;;;8.70;;
56629;SDS011;42502;40.732;-74.254;2023-05-10T01:24:54;11.23;;;8.35;;
56629;SDS011;42502;40.732;-74.254;2023-05-10T01:27:07;12.90;;;8.13;;
56629;SDS011;42502;40.732;-74.254;2023-05-10T01:36:35;13.77;;;7.72;;
56629;SDS011;42502;40.732;-74.254;2023-05-10T01:38:38;11.30;;;7.47;;
56629;SDS011;42502;40.732;-74.254;2023-05-10T01:43:23;11.05;;;7.13;;
56629;SDS011;42502;40.732;-74.254;2023-05-10T01:45:50;11.30;;;7.72;;
56629;SDS011;42502;40.732;-74.254;2023-05-10T01:48:07;14.45;;;8.73;;
56629;SDS011;42502;40.732;-74.254;2023-05-10T01:50:14;10.88;;;7.15;;
56629;SDS011;42502;40.732;-74.254;2023-05-10T01:52:25;14.23;;;8.05;;
56629;SDS011;42502;40.732;-74.254;2023-05-10T01:54:30;22.85;;;8.90;;
56629;SDS011;42502;40.732;-74.254;2023-05-10T01:56:34;18.42;;;8.65;;
56629;SDS011;42502;40.732;-74.254;2023-05-10T01:58:36;17.08;;;8.25;;
56629;SDS011;42502;40.732;-74.254;2023-05-10T02:00:46;22.70;;;7.82;;
56629;SDS011;42502;40.732;-74.254;2023-05-10T02:02:49;32.17;;;8.38;;
56629;SDS011;42502;40.732;-74.254;2023-05-10T02:04:53;17.90;;;6.90;;
56629;SDS011;42502;40.732;-74.254;2023-05-10T02:06:57;17.10;;;7.75;;
56629;SDS011;42502;40.732;-74.254;2023-05-10T02:08:58;17.83;;;6.93;;
56629;SDS011;42502;40.732;-74.254;2023-05-10T02:11:01;18.33;;;6.72;;
56629;SDS011;42502;40.732;-74.254;2023-05-10T02:13:03;14.00;;;5.38;;
56629;SDS011;42502;40.732;-74.254;2023-05-10T02:15:11;23.73;;;5.88;;
56629;SDS011;42502;40.732;-74.254;2023-05-10T02:17:15;17.52;;;5.20;;
56629;SDS011;42502;40.732;-74.254;2023-05-10T02:19:17;12.30;;;5.05;;
56629;SDS011;42502;40.732;-74.254;2023-05-10T02:21:20;8.63;;;4.20;;
56629;SDS011;42502;40.732;-74.254;2023-05-10T02:23:22;22.17;;;4.85;;
56629;SDS011;42502;40.732;-74.254;2023-05-10T02:25:24;15.20;;;3.47;;
56629;SDS011;42502;40.732;-74.254;2023-05-10T02:27:26;16.77;;;3.53;;
56629;SDS011;42502;40.732;-74.254;2023-05-10T02:29:28;11.05;;;3.15;;
56629;SDS011;42502;40.732;-74.254;2023-05-10T02:31:32;8.43;;;2.53;;
56629;SDS011;42502;40.732;-74.254;2023-05-10T02:33:33;11.80;;;3.03;;
56629;SDS011;42502;40.732;-74.254;2023-05-10T02:35:35;13.65;;;3.05;;
56629;SDS011;42502;40.732;-74.254;2023-05-10T02:37:37;14.75;;;2.58;;
56629;SDS011;42502;40.732;-74.254;2023-05-10T02:39:40;22.70;;;3.38;;
56629;SDS011;42502;40.732;-74.254;2023-05-10T02:41:44;8.05;;;2.40;;
56629;SDS011;42502;40.732;-74.254;2023-05-10T02:43:46;7.80;;;2.53;;
56629;SDS011;42502;40.732;-74.254;2023-05-10T02:45:50;6.25;;;2.17;;
56629;SDS011;42502;40.732;-74.254;2023-05-10T02:47:51;7.10;;;2.13;;
56629;SDS011;42502;40.732;-74.254;2023-05-10T02:49:52;12.98;;;2.10;;
56629;SDS011;42502;40.732;-74.254;2023-05-10T02:51:56;8.43;;;2.20;;
56629;SDS011;42502;40.732;-74.254;2023-05-10T02:54:11;6.70;;;1.90;;
56629;SDS011;42502;40.732;-74.254;2023-05-10T02:56:19;19.15;;;2.75;;
56629;SDS011;42502;40.732;-74.254;2023-05-10T02:58:25;22.45;;;2.80;;
56629;SDS011;42502;40.732;-74.254;2023-05-10T03:00:27;11.90;;;1.98;;
56629;SDS011;42502;40.732;-74.254;2023-05-10T03:02:28;13.32;;;2.60;;
56629;SDS011;42502;40.732;-74.254;2023-05-10T03:04:30;16.33;;;2.50;;
56629;SDS011;42502;40.732;-74.254;2023-05-10T03:06:31;15.50;;;2.10;;
56629;SDS011;42502;40.732;-74.254;2023-05-10T03:08:33;13.32;;;2.97;;
56629;SDS011;42502;40.732;-74.254;2023-05-10T03:10:36;10.55;;;2.03;;
56629;SDS011;42502;40.732;-74.254;2023-05-10T03:15:00;7.97;;;2.00;;
56629;SDS011;42502;40.732;-74.254;2023-05-10T03:17:30;11.52;;;2.10;;
56629;SDS011;42502;40.732;-74.254;2023-05-10T03:19:58;7.13;;;2.35;;
56629;SDS011;42502;40.732;-74.254;2023-05-10T03:22:05;10.82;;;2.50;;
56629;SDS011;42502;40.732;-74.254;2023-05-10T03:24:10;7.63;;;1.90;;
56629;SDS011;42502;40.732;-74.254;2023-05-10T03:26:20;12.20;;;1.80;;
56629;SDS011;42502;40.732;-74.254;2023-05-10T03:28:27;9.25;;;2.25;;
56629;SDS011;42502;40.732;-74.254;2023-05-10T03:30:29;13.48;;;2.25;;
56629;SDS011;42502;40.732;-74.254;2023-05-10T03:32:30;12.80;;;2.20;;
56629;SDS011;42502;40.732;-74.254;2023-05-10T03:34:32;10.75;;;1.92;;
56629;SDS011;42502;40.732;-74.254;2023-05-10T03:36:33;7.95;;;2.08;;
56629;SDS011;42502;40.732;-74.254;2023-05-10T03:38:34;9.73;;;2.25;;
56629;SDS011;42502;40.732;-74.254;2023-05-10T03:40:35;8.35;;;1.88;;
56629;SDS011;42502;40.732;-74.254;2023-05-10T03:42:36;10.55;;;2.20;;
56629;SDS011;42502;40.732;-74.254;2023-05-10T03:44:37;11.13;;;1.88;;
56629;SDS011;42502;40.732;-74.254;2023-05-10T03:46:39;9.50;;;1.50;;
56629;SDS011;42502;40.732;-74.254;2023-05-10T03:48:40;10.40;;;1.80;;
56629;SDS011;42502;40.732;-74.254;2023-05-10T03:50:41;10.10;;;2.03;;
56629;SDS011;42502;40.732;-74.254;2023-05-10T03:52:42;5.43;;;1.73;;
56629;SDS011;42502;40.732;-74.254;2023-05-10T03:54:44;7.07;;;1.88;;
56629;SDS011;42502;40.732;-74.254;2023-05-10T03:56:45;7.22;;;1.35;;
56629;SDS011;42502;40.732;-74.254;2023-05-10T03:58:47;6.43;;;1.65;;
56629;SDS011;42502;40.732;-74.254;2023-05-10T04:00:48;4.13;;;1.27;;
56629;SDS011;42502;40.732;-74.254;2023-05-10T04:02:49;8.10;;;1.80;;
56629;SDS011;42502;40.732;-74.254;2023-05-10T04:04:50;5.30;;;1.63;;
56629;SDS011;42502;40.732;-74.254;2023-05-10T04:06:51;6.25;;;1.40;;
56629;SDS011;42502;40.732;-74.254;2023-05-10T04:08:52;5.45;;;1.38;;
56629;SDS011;42502;40.732;-74.254;2023-05-10T04:10:52;3.47;;;1.20;;
56629;SDS011;42502;40.732;-74.254;2023-05-10T04:12:53;5.57;;;1.20;;
56629;SDS011;42502;40.732;-74.254;2023-05-10T04:14:54;5.65;;;1.40;;
56629;SDS011;42502;40.732;-74.254;2023-05-10T04:16:55;7.45;;;1.42;;
56629;SDS011;42502;40.732;-74.254;2023-05-10T04:18:55;4.78;;;1.63;;
56629;SDS011;42502;40.732;-74.254;2023-05-10T04:20:57;6.80;;;1.45;;
56629;SDS011;42502;40.732;-74.254;2023-05-10T04:22:58;3.88;;;1.00;;
56629;SDS011;42502;40.732;-74.254;2023-05-10T04:24:59;4.53;;;1.20;;
56629;SDS011;42502;40.732;-74.254;2023-05-10T04:26:59;3.40;;;1.10;;
56629;SDS011;42502;40.732;-74.254;2023-05-10T04:29:00;5.13;;;1.10;;
56629;SDS011;42502;40.732;-74.254;2023-05-10T04:31:04;4.13;;;1.00;;
56629;SDS011;42502;40.732;-74.254;2023-05-10T04:33:06;5.28;;;1.30;;
56629;SDS011;42502;40.732;-74.254;2023-05-10T04:35:07;4.28;;;1.20;;
56629;SDS011;42502;40.732;-74.254;2023-05-10T04:37:10;4.20;;;1.08;;
56629;SDS011;42502;40.732;-74.254;2023-05-10T04:39:10;2.55;;;1.17;;
56629;SDS011;42502;40.732;-74.254;2023-05-10T04:41:11;3.42;;;1.02;;
56629;SDS011;42502;40.732;-74.254;2023-05-10T04:43:12;5.25;;;1.10;;
56629;SDS011;42502;40.732;-74.254;2023-05-10T04:45:13;3.35;;;0.90;;
56629;SDS011;42502;40.732;-74.254;2023-05-10T04:47:17;3.33;;;1.00;;
56629;SDS011;42502;40.732;-74.254;2023-05-10T04:49:17;3.53;;;0.90;;
56629;SDS011;42502;40.732;-74.254;2023-05-10T04:51:18;2.90;;;0.95;;
56629;SDS011;42502;40.732;-74.254;2023-05-10T04:53:20;4.60;;;0.90;;
56629;SDS011;42502;40.732;-74.254;2023-05-10T04:55:21;5.28;;;0.90;;
56629;SDS011;42502;40.732;-74.254;2023-05-10T04:57:22;3.03;;;0.90;;
56629;SDS011;42502;40.732;-74.254;2023-05-10T04:59:23;2.53;;;0.73;;
56629;SDS011;42502;40.732;-74.254;2023-05-10T05:01:23;5.03;;;1.00;;
56629;SDS011;42502;40.732;-74.254;2023-05-10T05:03:24;2.67;;;0.98;;
56629;SDS011;42502;40.732;-74.254;2023-05-10T05:05:25;2.67;;;1.02;;
56629;SDS011;42502;40.732;-74.254;2023-05-10T05:07:26;2.92;;;0.98;;
56629;SDS011;42502;40.732;-74.254;2023-05-10T05:09:27;2.00;;;0.85;;
56629;SDS011;42502;40.732;-74.254;2023-05-10T05:11:28;1.05;;;0.60;;
56629;SDS011;42502;40.732;-74.254;2023-05-10T05:13:28;1.25;;;0.70;;
56629;SDS011;42502;40.732;-74.254;2023-05-10T05:15:29;2.75;;;0.80;;
56629;SDS011;42502;40.732;-74.254;2023-05-10T05:17:30;5.38;;;0.90;;
56629;SDS011;42502;40.732;-74.254;2023-05-10T05:19:31;1.52;;;0.88;;
56629;SDS011;42502;40.732;-74.254;2023-05-10T05:21:32;2.53;;;0.80;;
56629;SDS011;42502;40.732;-74.254;2023-05-10T05:23:33;2.10;;;0.70;;
56629;SDS011;42502;40.732;-74.254;2023-05-10T05:25:34;1.95;;;0.70;;
56629;SDS011;42502;40.732;-74.254;2023-05-10T05:27:35;1.95;;;0.70;;
56629;SDS011;42502;40.732;-74.254;2023-05-10T05:29:36;3.75;;;0.77;;
56629;SDS011;42502;40.732;-74.254;2023-05-10T05:31:37;1.15;;;0.60;;
56629;SDS011;42502;40.732;-74.254;2023-05-10T05:33:38;1.70;;;0.70;;
56629;SDS011;42502;40.732;-74.254;2023-05-10T05:35:38;1.90;;;0.60;;
56629;SDS011;42502;40.732;-74.254;2023-05-10T05:37:39;2.83;;;0.70;;
56629;SDS011;42502;40.732;-74.254;2023-05-10T05:39:40;1.48;;;0.70;;
56629;SDS011;42502;40.732;-74.254;2023-05-10T05:41:42;2.65;;;0.60;;
56629;SDS011;42502;40.732;-74.254;2023-05-10T05:43:43;1.02;;;0.65;;
56629;SDS011;42502;40.732;-74.254;2023-05-10T05:45:44;0.77;;;0.60;;
56629;SDS011;42502;40.732;-74.254;2023-05-10T05:47:45;1.52;;;0.50;;
56629;SDS011;42502;40.732;-74.254;2023-05-10T05:49:46;1.48;;;0.68;;
56629;SDS011;42502;40.732;-74.254;2023-05-10T05:51:47;2.03;;;0.63;;
56629;SDS011;42502;40.732;-74.254;2023-05-10T05:53:49;1.65;;;0.80;;
56629;SDS011;42502;40.732;-74.254;2023-05-10T05:55:52;1.95;;;0.60;;
56629;SDS011;42502;40.732;-74.254;2023-05-10T05:57:54;1.35;;;0.50;;
56629;SDS011;42502;40.732;-74.254;2023-05-10T05:59:55;1.70;;;0.50;;
56629;SDS011;42502;40.732;-74.254;2023-05-10T06:01:56;1.10;;;0.52;;
56629;SDS011;42502;40.732;-74.254;2023-05-10T06:03:56;1.33;;;0.80;;
56629;SDS011;42502;40.732;-74.254;2023-05-10T06:06:00;0.75;;;0.50;;
56629;SDS011;42502;40.732;-74.254;2023-05-10T06:08:01;1.73;;;0.60;;
56629;SDS011;42502;40.732;-74.254;2023-05-10T06:10:02;1.23;;;0.70;;
56629;SDS011;42502;40.732;-74.254;2023-05-10T06:12:03;0.75;;;0.50;;
56629;SDS011;42502;40.732;-74.254;2023-05-10T06:14:04;0.85;;;0.57;;
56629;SDS011;42502;40.732;-74.254;2023-05-10T06:16:07;1.70;;;0.60;;
56629;SDS011;42502;40.732;-74.254;2023-05-10T06:18:07;0.90;;;0.43;;
56629;SDS011;42502;40.732;-74.254;2023-05-10T06:20:08;0.80;;;0.50;;
56629;SDS011;42502;40.732;-74.254;2023-05-10T06:22:10;2.35;;;0.60;;
56629;SDS011;42502;40.732;-74.254;2023-05-10T06:24:10;0.98;;;0.80;;
56629;SDS011;42502;40.732;-74.254;2023-05-10T06:26:11;1.33;;;0.45;;
56629;SDS011;42502;40.732;-74.254;2023-05-10T06:28:15;2.72;;;0.60;;
56629;SDS011;42502;40.732;-74.254;2023-05-10T06:30:15;1.42;;;0.60;;
56629;SDS011;42502;40.732;-74.254;2023-05-10T06:32:16;0.80;;;0.40;;
56629;SDS011;42502;40.732;-74.254;2023-05-10T06:34:17;0.65;;;0.47;;
56629;SDS011;42502;40.732;-74.254;2023-05-10T06:36:18;1.25;;;0.50;;
56629;SDS011;42502;40.732;-74.254;2023-05-10T06:38:19;1.23;;;0.50;;
56629;SDS011;42502;40.732;-74.254;2023-05-10T06:40:19;0.90;;;0.50;;
56629;SDS011;42502;40.732;-74.254;2023-05-10T06:42:20;0.70;;;0.50;;
56629;SDS011;42502;40.732;-74.254;2023-05-10T06:44:21;0.60;;;0.40;;
56629;SDS011;42502;40.732;-74.254;2023-05-10T06:46:22;1.65;;;0.40;;
56629;SDS011;42502;40.732;-74.254;2023-05-10T06:48:23;1.58;;;0.60;;
56629;SDS011;42502;40.732;-74.254;2023-05-10T06:50:24;0.70;;;0.50;;
56629;SDS011;42502;40.732;-74.254;2023-05-10T06:52:24;0.60;;;0.50;;
56629;SDS011;42502;40.732;-74.254;2023-05-10T06:54:25;0.57;;;0.43;;
56629;SDS011;42502;40.732;-74.254;2023-05-10T06:56:26;1.38;;;0.40;;
56629;SDS011;42502;40.732;-74.254;2023-05-10T06:58:29;0.40;;;0.35;;
56629;SDS011;42502;40.732;-74.254;2023-05-10T07:00:30;0.30;;;0.30;;
56629;SDS011;42502;40.732;-74.254;2023-05-10T07:02:33;0.60;;;0.45;;
56629;SDS011;42502;40.732;-74.254;2023-05-10T07:04:34;0.65;;;0.50;;
56629;SDS011;42502;40.732;-74.254;2023-05-10T07:06:35;0.63;;;0.47;;
56629;SDS011;42502;40.732;-74.254;2023-05-10T07:08:38;0.80;;;0.40;;
56629;SDS011;42502;40.732;-74.254;2023-05-10T07:10:38;1.10;;;0.50;;
56629;SDS011;42502;40.732;-74.254;2023-05-10T07:12:39;0.50;;;0.38;;
56629;SDS011;42502;40.732;-74.254;2023-05-10T07:14:41;0.82;;;0.40;;
56629;SDS011;42502;40.732;-74.254;2023-05-10T07:16:42;0.77;;;0.40;;
56629;SDS011;42502;40.732;-74.254;2023-05-10T07:18:42;1.27;;;0.40;;
56629;SDS011;42502;40.732;-74.254;2023-05-10T07:20:43;0.80;;;0.50;;
56629;SDS011;42502;40.732;-74.254;2023-05-10T07:22:44;0.50;;;0.40;;
56629;SDS011;42502;40.732;-74.254;2023-05-10T07:24:45;1.00;;;0.43;;
56629;SDS011;42502;40.732;-74.254;2023-05-10T07:26:51;0.85;;;0.50;;
56629;SDS011;42502;40.732;-74.254;2023-05-10T07:28:52;1.20;;;0.50;;
56629;SDS011;42502;40.732;-74.254;2023-05-10T07:30:52;1.08;;;0.40;;
56629;SDS011;42502;40.732;-74.254;2023-05-10T07:32:53;0.50;;;0.40;;
56629;SDS011;42502;40.732;-74.254;2023-05-10T07:34:54;1.42;;;0.40;;
56629;SDS011;42502;40.732;-74.254;2023-05-10T07:36:55;0.50;;;0.40;;
56629;SDS011;42502;40.732;-74.254;2023-05-10T07:38:57;0.50;;;0.40;;
56629;SDS011;42502;40.732;-74.254;2023-05-10T07:40:58;0.50;;;0.40;;
56629;SDS011;42502;40.732;-74.254;2023-05-10T07:42:59;1.15;;;0.40;;
56629;SDS011;42502;40.732;-74.254;2023-05-10T07:45:01;0.70;;;0.40;;
56629;SDS011;42502;40.732;-74.254;2023-05-10T07:47:02;1.00;;;0.45;;
56629;SDS011;42502;40.732;-74.254;2023-05-10T07:49:03;0.73;;;0.40;;
56629;SDS011;42502;40.732;-74.254;2023-05-10T07:51:04;1.63;;;0.50;;
56629;SDS011;42502;40.732;-74.254;2023-05-10T07:53:07;1.50;;;0.40;;
56629;SDS011;42502;40.732;-74.254;2023-05-10T07:55:08;0.60;;;0.40;;
56629;SDS011;42502;40.732;-74.254;2023-05-10T07:57:09;0.73;;;0.40;;
56629;SDS011;42502;40.732;-74.254;2023-05-10T07:59:14;0.73;;;0.40;;
56629;SDS011;42502;40.732;-74.254;2023-05-10T08:01:15;0.30;;;0.30;;
56629;SDS011;42502;40.732;-74.254;2023-05-10T08:03:16;0.82;;;0.30;;
56629;SDS011;42502;40.732;-74.254;2023-05-10T08:05:17;0.57;;;0.50;;
56629;SDS011;42502;40.732;-74.254;2023-05-10T08:07:17;1.05;;;0.50;;
56629;SDS011;42502;40.732;-74.254;2023-05-10T08:09:18;0.60;;;0.40;;
56629;SDS011;42502;40.732;-74.254;2023-05-10T08:11:23;1.33;;;0.50;;
56629;SDS011;42502;40.732;-74.254;2023-05-10T08:13:24;0.98;;;0.40;;
56629;SDS011;42502;40.732;-74.254;2023-05-10T08:15:25;1.30;;;0.43;;
56629;SDS011;42502;40.732;-74.254;2023-05-10T08:17:26;0.68;;;0.40;;
56629;SDS011;42502;40.732;-74.254;2023-05-10T08:19:27;0.40;;;0.30;;
56629;SDS011;42502;40.732;-74.254;2023-05-10T08:21:27;0.40;;;0.30;;
56629;SDS011;42502;40.732;-74.254;2023-05-10T08:23:28;1.67;;;0.40;;
56629;SDS011;42502;40.732;-74.254;2023-05-10T08:25:29;0.47;;;0.30;;
56629;SDS011;42502;40.732;-74.254;2023-05-10T08:27:30;1.33;;;0.40;;
56629;SDS011;42502;40.732;-74.254;2023-05-10T08:29:31;0.30;;;0.30;;
56629;SDS011;42502;40.732;-74.254;2023-05-10T08:31:31;1.13;;;0.40;;
56629;SDS011;42502;40.732;-74.254;2023-05-10T08:33:32;0.52;;;0.43;;
56629;SDS011;42502;40.732;-74.254;2023-05-10T08:35:33;1.58;;;0.43;;
56629;SDS011;42502;40.732;-74.254;2023-05-10T08:37:35;0.70;;;0.40;;
56629;SDS011;42502;40.732;-74.254;2023-05-10T08:39:35;0.40;;;0.40;;
56629;SDS011;42502;40.732;-74.254;2023-05-10T08:41:36;1.48;;;0.30;;
56629;SDS011;42502;40.732;-74.254;2023-05-10T08:43:40;0.77;;;0.40;;
56629;SDS011;42502;40.732;-74.254;2023-05-10T08:45:46;0.63;;;0.40;;
56629;SDS011;42502;40.732;-74.254;2023-05-10T08:47:49;1.13;;;0.40;;
56629;SDS011;42502;40.732;-74.254;2023-05-10T08:49:51;0.70;;;0.35;;
56629;SDS011;42502;40.732;-74.254;2023-05-10T08:51:54;0.43;;;0.40;;
56629;SDS011;42502;40.732;-74.254;2023-05-10T08:53:56;1.48;;;0.30;;
56629;SDS011;42502;40.732;-74.254;2023-05-10T08:55:57;0.50;;;0.40;;
56629;SDS011;42502;40.732;-74.254;2023-05-10T08:57:59;0.60;;;0.50;;
56629;SDS011;42502;40.732;-74.254;2023-05-10T09:00:00;0.55;;;0.40;;
56629;SDS011;42502;40.732;-74.254;2023-05-10T09:02:01;0.40;;;0.30;;
56629;SDS011;42502;40.732;-74.254;2023-05-10T09:04:04;0.90;;;0.40;;
56629;SDS011;42502;40.732;-74.254;2023-05-10T09:06:05;0.47;;;0.30;;
56629;SDS011;42502;40.732;-74.254;2023-05-10T09:08:07;0.70;;;0.40;;
56629;SDS011;42502;40.732;-74.254;2023-05-10T09:10:09;0.70;;;0.40;;
56629;SDS011;42502;40.732;-74.254;2023-05-10T09:12:11;0.50;;;0.32;;
56629;SDS011;42502;40.732;-74.254;2023-05-10T09:14:15;0.80;;;0.40;;
56629;SDS011;42502;40.732;-74.254;2023-05-10T09:16:17;2.35;;;0.40;;
56629;SDS011;42502;40.732;-74.254;2023-05-10T09:18:18;0.77;;;0.40;;
56629;SDS011;42502;40.732;-74.254;2023-05-10T09:20:22;1.00;;;0.45;;
56629;SDS011;42502;40.732;-74.254;2023-05-10T09:22:22;0.40;;;0.30;;
56629;SDS011;42502;40.732;-74.254;2023-05-10T09:24:27;0.50;;;0.40;;
56629;SDS011;42502;40.732;-74.254;2023-05-10T09:26:29;0.82;;;0.63;;
56629;SDS011;42502;40.732;-74.254;2023-05-10T09:28:49;2.15;;;0.40;;
56629;SDS011;42502;40.732;-74.254;2023-05-10T09:30:53;0.52;;;0.38;;
56629;SDS011;42502;40.732;-74.254;2023-05-10T09:32:56;1.00;;;0.40;;
56629;SDS011;42502;40.732;-74.254;2023-05-10T09:35:05;2.22;;;0.40;;
56629;SDS011;42502;40.732;-74.254;2023-05-10T09:37:09;6.18;;;0.50;;
56629;SDS011;42502;40.732;-74.254;2023-05-10T09:39:10;9.27;;;0.68;;
56629;SDS011;42502;40.732;-74.254;2023-05-10T09:41:18;3.25;;;0.43;;
56629;SDS011;42502;40.732;-74.254;2023-05-10T09:43:20;2.15;;;0.40;;
56629;SDS011;42502;40.732;-74.254;2023-05-10T09:45:22;3.38;;;0.40;;
56629;SDS011;42502;40.732;-74.254;2023-05-10T09:47:23;0.90;;;0.40;;
56629;SDS011;42502;40.732;-74.254;2023-05-10T09:49:26;3.10;;;0.50;;
56629;SDS011;42502;40.732;-74.254;2023-05-10T09:51:28;2.20;;;0.50;;
56629;SDS011;42502;40.732;-74.254;2023-05-10T09:53:29;2.47;;;0.45;;
56629;SDS011;42502;40.732;-74.254;2023-05-10T09:55:40;5.53;;;0.50;;
56629;SDS011;42502;40.732;-74.254;2023-05-10T09:57:44;6.65;;;0.73;;
56629;SDS011;42502;40.732;-74.254;2023-05-10T09:59:46;2.13;;;0.40;;
56629;SDS011;42502;40.732;-74.254;2023-05-10T10:01:50;3.38;;;0.40;;
56629;SDS011;42502;40.732;-74.254;2023-05-10T10:03:52;2.50;;;0.40;;
56629;SDS011;42502;40.732;-74.254;2023-05-10T10:05:53;2.80;;;0.47;;
56629;SDS011;42502;40.732;-74.254;2023-05-10T10:07:59;2.15;;;0.50;;
56629;SDS011;42502;40.732;-74.254;2023-05-10T10:10:01;4.07;;;0.50;;
56629;SDS011;42502;40.732;-74.254;2023-05-10T10:12:02;5.05;;;0.50;;
56629;SDS011;42502;40.732;-74.254;2023-05-10T10:14:04;2.75;;;0.40;;
56629;SDS011;42502;40.732;-74.254;2023-05-10T10:16:06;1.33;;;0.40;;
56629;SDS011;42502;40.732;-74.254;2023-05-10T10:18:10;4.88;;;0.50;;
56629;SDS011;42502;40.732;-74.254;2023-05-10T10:20:14;2.65;;;0.40;;
56629;SDS011;42502;40.732;-74.254;2023-05-10T10:22:16;4.13;;;0.40;;
56629;SDS011;42502;40.732;-74.254;2023-05-10T10:24:19;1.00;;;0.50;;
56629;SDS011;42502;40.732;-74.254;2023-05-10T10:26:23;6.05;;;0.60;;
56629;SDS011;42502;40.732;-74.254;2023-05-10T10:35:08;7.80;;;0.70;;
56629;SDS011;42502;40.732;-74.254;2023-05-10T10:37:09;8.77;;;0.57;;
56629;SDS011;42502;40.732;-74.254;2023-05-10T10:39:16;5.65;;;0.60;;
56629;SDS011;42502;40.732;-74.254;2023-05-10T10:41:31;4.68;;;0.68;;
56629;SDS011;42502;40.732;-74.254;2023-05-10T10:45:38;2.65;;;0.50;;
56629;SDS011;42502;40.732;-74.254;2023-05-10T10:47:40;3.80;;;0.60;;
56629;SDS011;42502;40.732;-74.254;2023-05-10T10:49:44;3.70;;;0.60;;
56629;SDS011;42502;40.732;-74.254;2023-05-10T10:54:18;8.07;;;0.60;;
56629;SDS011;42502;40.732;-74.254;2023-05-10T10:56:28;6.82;;;0.60;;
56629;SDS011;42502;40.732;-74.254;2023-05-10T10:58:29;3.53;;;0.60;;
56629;SDS011;42502;40.732;-74.254;2023-05-10T11:00:37;4.18;;;0.55;;
56629;SDS011;42502;40.732;-74.254;2023-05-10T11:04:42;3.63;;;0.60;;
56629;SDS011;42502;40.732;-74.254;2023-05-10T11:06:46;6.03;;;0.60;;
56629;SDS011;42502;40.732;-74.254;2023-05-10T11:08:47;3.17;;;0.50;;
56629;SDS011;42502;40.732;-74.254;2023-05-10T11:13:07;6.88;;;0.75;;
56629;SDS011;42502;40.732;-74.254;2023-05-10T11:15:10;4.05;;;0.65;;
56629;SDS011;42502;40.732;-74.254;2023-05-10T11:17:28;5.38;;;0.57;;
56629;SDS011;42502;40.732;-74.254;2023-05-10T11:19:30;8.10;;;0.70;;
56629;SDS011;42502;40.732;-74.254;2023-05-10T11:21:31;6.13;;;0.60;;
56629;SDS011;42502;40.732;-74.254;2023-05-10T11:25:41;9.05;;;0.80;;
56629;SDS011;42502;40.732;-74.254;2023-05-10T11:27:48;3.72;;;0.60;;
56629;SDS011;42502;40.732;-74.254;2023-05-10T11:29:52;7.38;;;0.65;;
56629;SDS011;42502;40.732;-74.254;2023-05-10T11:31:53;2.53;;;0.70;;
56629;SDS011;42502;40.732;-74.254;2023-05-10T11:33:58;6.38;;;0.60;;
56629;SDS011;42502;40.732;-74.254;2023-05-10T11:36:01;9.25;;;0.75;;
56629;SDS011;42502;40.732;-74.254;2023-05-10T11:38:04;5.00;;;0.90;;
56629;SDS011;42502;40.732;-74.254;2023-05-10T11:40:07;9.68;;;0.77;;
56629;SDS011;42502;40.732;-74.254;2023-05-10T11:42:09;8.95;;;0.93;;
56629;SDS011;42502;40.732;-74.254;2023-05-10T11:44:12;9.75;;;1.10;;
56629;SDS011;42502;40.732;-74.254;2023-05-10T11:46:13;12.75;;;1.15;;
56629;SDS011;42502;40.732;-74.254;2023-05-10T11:48:14;10.55;;;0.93;;
56629;SDS011;42502;40.732;-74.254;2023-05-10T11:50:17;6.93;;;1.00;;
56629;SDS011;42502;40.732;-74.254;2023-05-10T11:52:18;12.35;;;1.10;;
56629;SDS011;42502;40.732;-74.254;2023-05-10T11:54:22;21.80;;;1.48;;
56629;SDS011;42502;40.732;-74.254;2023-05-10T11:56:26;14.55;;;1.35;;
56629;SDS011;42502;40.732;-74.254;2023-05-10T11:58:27;7.50;;;1.08;;
56629;SDS011;42502;40.732;-74.254;2023-05-10T12:00:27;12.15;;;1.00;;
56629;SDS011;42502;40.732;-74.254;2023-05-10T12:02:29;14.43;;;1.33;;
56629;SDS011;42502;40.732;-74.254;2023-05-10T12:04:30;12.88;;;1.17;;
56629;SDS011;42502;40.732;-74.254;2023-05-10T12:06:32;13.90;;;0.90;;
56629;SDS011;42502;40.732;-74.254;2023-05-10T12:08:43;14.35;;;1.13;;
56629;SDS011;42502;40.732;-74.254;2023-05-10T12:12:47;10.30;;;0.80;;
56629;SDS011;42502;40.732;-74.254;2023-05-10T12:14:51;15.60;;;1.08;;
56629;SDS011;42502;40.732;-74.254;2023-05-10T12:16:51;8.65;;;0.95;;
56629;SDS011;42502;40.732;-74.254;2023-05-10T12:18:56;9.65;;;1.10;;
56629;SDS011;42502;40.732;-74.254;2023-05-10T12:21:02;9.82;;;1.20;;
56629;SDS011;42502;40.732;-74.254;2023-05-10T12:23:03;7.65;;;1.00;;
56629;SDS011;42502;40.732;-74.254;2023-05-10T12:25:06;11.63;;;1.00;;
56629;SDS011;42502;40.732;-74.254;2023-05-10T12:27:08;8.52;;;1.13;;
56629;SDS011;42502;40.732;-74.254;2023-05-10T12:29:15;11.00;;;1.00;;